sensor_id;sensor_type;location;lat;lon;timestamp;P1;durP1;ratioP1;P2;durP2;ratioP2
73113;SDS011;61301;51.956;5.876;2023-04-15T00:01:27;6.50;;;3.22;;
73113;SDS011;61301;51.956;5.876;2023-04-15T00:03:53;5.78;;;3.08;;
73113;SDS011;61301;51.956;5.876;2023-04-15T00:06:20;6.20;;;3.47;;
73113;SDS011;61301;51.956;5.876;2023-04-15T00:08:47;4.82;;;3.30;;
73113;SDS011;61301;51.956;5.876;2023-04-15T00:11:15;4.90;;;3.58;;
73113;SDS011;61301;51.956;5.876;2023-04-15T00:13:43;10.02;;;3.95;;
73113;SDS011;61301;51.956;5.876;2023-04-15T00:16:09;4.35;;;3.03;;
73113;SDS011;61301;51.956;5.876;2023-04-15T00:18:36;4.65;;;2.75;;
73113;SDS011;61301;51.956;5.876;2023-04-15T00:21:02;4.47;;;3.22;;
73113;SDS011;61301;51.956;5.876;2023-04-15T00:23:29;7.93;;;4.18;;
73113;SDS011;61301;51.956;5.876;2023-04-15T00:25:55;5.97;;;3.40;;
73113;SDS011;61301;51.956;5.876;2023-04-15T00:28:21;6.05;;;3.60;;
73113;SDS011;61301;51.956;5.876;2023-04-15T00:30:47;9.00;;;3.97;;
73113;SDS011;61301;51.956;5.876;2023-04-15T00:33:13;7.40;;;3.90;;
73113;SDS011;61301;51.956;5.876;2023-04-15T00:35:41;3.75;;;2.33;;
73113;SDS011;61301;51.956;5.876;2023-04-15T00:38:07;6.55;;;3.65;;
73113;SDS011;61301;51.956;5.876;2023-04-15T00:40:34;8.27;;;3.70;;
73113;SDS011;61301;51.956;5.876;2023-04-15T00:43:00;5.22;;;2.97;;
73113;SDS011;61301;51.956;5.876;2023-04-15T00:45:26;6.30;;;2.97;;
73113;SDS011;61301;51.956;5.876;2023-04-15T00:47:54;4.68;;;3.20;;
73113;SDS011;61301;51.956;5.876;2023-04-15T00:50:20;8.57;;;3.13;;
73113;SDS011;61301;51.956;5.876;2023-04-15T00:52:47;3.90;;;2.40;;
73113;SDS011;61301;51.956;5.876;2023-04-15T00:55:14;5.15;;;2.97;;
73113;SDS011;61301;51.956;5.876;2023-04-15T00:57:40;4.22;;;2.90;;
73113;SDS011;61301;51.956;5.876;2023-04-15T01:00:07;5.55;;;3.20;;
73113;SDS011;61301;51.956;5.876;2023-04-15T01:02:36;6.28;;;3.90;;
73113;SDS011;61301;51.956;5.876;2023-04-15T01:05:02;5.53;;;3.45;;
73113;SDS011;61301;51.956;5.876;2023-04-15T01:07:30;5.85;;;3.10;;
73113;SDS011;61301;51.956;5.876;2023-04-15T01:09:56;6.30;;;3.47;;
73113;SDS011;61301;51.956;5.876;2023-04-15T01:12:23;5.93;;;4.20;;
73113;SDS011;61301;51.956;5.876;2023-04-15T01:14:52;5.30;;;3.65;;
73113;SDS011;61301;51.956;5.876;2023-04-15T01:17:19;5.97;;;3.38;;
73113;SDS011;61301;51.956;5.876;2023-04-15T01:19:46;5.72;;;3.50;;
73113;SDS011;61301;51.956;5.876;2023-04-15T01:22:12;5.85;;;3.75;;
73113;SDS011;61301;51.956;5.876;2023-04-15T01:24:38;6.18;;;3.72;;
73113;SDS011;61301;51.956;5.876;2023-04-15T01:27:04;6.07;;;3.80;;
73113;SDS011;61301;51.956;5.876;2023-04-15T01:29:31;5.28;;;3.40;;
73113;SDS011;61301;51.956;5.876;2023-04-15T01:31:57;7.60;;;4.15;;
73113;SDS011;61301;51.956;5.876;2023-04-15T01:34:25;5.97;;;4.05;;
73113;SDS011;61301;51.956;5.876;2023-04-15T01:36:53;6.68;;;3.92;;
73113;SDS011;61301;51.956;5.876;2023-04-15T01:39:20;6.38;;;3.63;;
73113;SDS011;61301;51.956;5.876;2023-04-15T01:41:46;6.60;;;3.85;;
73113;SDS011;61301;51.956;5.876;2023-04-15T01:44:15;4.97;;;3.67;;
73113;SDS011;61301;51.956;5.876;2023-04-15T01:46:41;6.95;;;3.80;;
73113;SDS011;61301;51.956;5.876;2023-04-15T01:49:07;5.03;;;3.65;;
73113;SDS011;61301;51.956;5.876;2023-04-15T01:51:33;6.18;;;3.97;;
73113;SDS011;61301;51.956;5.876;2023-04-15T01:53:59;8.35;;;4.50;;
73113;SDS011;61301;51.956;5.876;2023-04-15T01:56:25;5.72;;;4.43;;
73113;SDS011;61301;51.956;5.876;2023-04-15T01:58:51;6.18;;;3.90;;
73113;SDS011;61301;51.956;5.876;2023-04-15T02:01:17;7.32;;;3.60;;
73113;SDS011;61301;51.956;5.876;2023-04-15T02:03:46;6.55;;;3.78;;
73113;SDS011;61301;51.956;5.876;2023-04-15T02:06:14;7.68;;;3.90;;
73113;SDS011;61301;51.956;5.876;2023-04-15T02:08:40;5.80;;;4.35;;
73113;SDS011;61301;51.956;5.876;2023-04-15T02:11:06;6.18;;;4.50;;
73113;SDS011;61301;51.956;5.876;2023-04-15T02:13:33;5.95;;;3.97;;
73113;SDS011;61301;51.956;5.876;2023-04-15T02:15:59;5.38;;;3.67;;
73113;SDS011;61301;51.956;5.876;2023-04-15T02:18:25;6.85;;;4.13;;
73113;SDS011;61301;51.956;5.876;2023-04-15T02:20:51;6.25;;;4.38;;
73113;SDS011;61301;51.956;5.876;2023-04-15T02:23:17;6.72;;;4.25;;
73113;SDS011;61301;51.956;5.876;2023-04-15T02:25:43;5.25;;;3.83;;
73113;SDS011;61301;51.956;5.876;2023-04-15T02:28:10;6.72;;;4.70;;
73113;SDS011;61301;51.956;5.876;2023-04-15T02:30:36;6.63;;;3.95;;
73113;SDS011;61301;51.956;5.876;2023-04-15T02:33:02;6.57;;;3.75;;
73113;SDS011;61301;51.956;5.876;2023-04-15T02:35:28;6.97;;;4.50;;
73113;SDS011;61301;51.956;5.876;2023-04-15T02:37:54;5.22;;;3.90;;
73113;SDS011;61301;51.956;5.876;2023-04-15T02:40:21;9.65;;;4.40;;
73113;SDS011;61301;51.956;5.876;2023-04-15T02:42:47;9.07;;;4.85;;
73113;SDS011;61301;51.956;5.876;2023-04-15T02:45:15;5.32;;;4.20;;
73113;SDS011;61301;51.956;5.876;2023-04-15T02:47:43;7.93;;;4.97;;
73113;SDS011;61301;51.956;5.876;2023-04-15T02:50:11;8.88;;;5.25;;
73113;SDS011;61301;51.956;5.876;2023-04-15T02:52:39;8.32;;;5.13;;
73113;SDS011;61301;51.956;5.876;2023-04-15T02:55:10;7.30;;;4.43;;
73113;SDS011;61301;51.956;5.876;2023-04-15T02:57:36;6.05;;;4.28;;
73113;SDS011;61301;51.956;5.876;2023-04-15T03:00:06;7.55;;;4.82;;
73113;SDS011;61301;51.956;5.876;2023-04-15T03:02:37;7.55;;;4.90;;
73113;SDS011;61301;51.956;5.876;2023-04-15T03:05:04;5.32;;;4.30;;
73113;SDS011;61301;51.956;5.876;2023-04-15T03:07:31;5.70;;;4.13;;
73113;SDS011;61301;51.956;5.876;2023-04-15T03:09:59;5.55;;;4.85;;
73113;SDS011;61301;51.956;5.876;2023-04-15T03:12:25;5.25;;;3.97;;
73113;SDS011;61301;51.956;5.876;2023-04-15T03:14:54;8.05;;;4.38;;
73113;SDS011;61301;51.956;5.876;2023-04-15T03:17:26;6.78;;;4.50;;
73113;SDS011;61301;51.956;5.876;2023-04-15T03:19:53;8.10;;;4.38;;
73113;SDS011;61301;51.956;5.876;2023-04-15T03:22:19;10.55;;;4.47;;
73113;SDS011;61301;51.956;5.876;2023-04-15T03:24:45;7.82;;;5.20;;
73113;SDS011;61301;51.956;5.876;2023-04-15T03:27:11;7.10;;;4.70;;
73113;SDS011;61301;51.956;5.876;2023-04-15T03:29:38;6.30;;;5.05;;
73113;SDS011;61301;51.956;5.876;2023-04-15T03:32:04;7.15;;;5.10;;
73113;SDS011;61301;51.956;5.876;2023-04-15T03:34:33;8.02;;;5.43;;
73113;SDS011;61301;51.956;5.876;2023-04-15T03:36:59;8.88;;;5.45;;
73113;SDS011;61301;51.956;5.876;2023-04-15T03:39:25;7.40;;;4.88;;
73113;SDS011;61301;51.956;5.876;2023-04-15T03:41:51;8.90;;;5.45;;
73113;SDS011;61301;51.956;5.876;2023-04-15T03:44:17;7.72;;;5.78;;
73113;SDS011;61301;51.956;5.876;2023-04-15T03:46:43;8.35;;;5.30;;
73113;SDS011;61301;51.956;5.876;2023-04-15T03:49:09;6.82;;;5.60;;
73113;SDS011;61301;51.956;5.876;2023-04-15T03:51:35;6.72;;;5.65;;
73113;SDS011;61301;51.956;5.876;2023-04-15T03:54:01;7.43;;;5.47;;
73113;SDS011;61301;51.956;5.876;2023-04-15T03:56:27;7.20;;;5.32;;
73113;SDS011;61301;51.956;5.876;2023-04-15T03:58:53;7.30;;;4.53;;
73113;SDS011;61301;51.956;5.876;2023-04-15T04:01:19;7.65;;;5.93;;
73113;SDS011;61301;51.956;5.876;2023-04-15T04:03:48;8.50;;;5.82;;
73113;SDS011;61301;51.956;5.876;2023-04-15T04:06:14;6.03;;;4.50;;
73113;SDS011;61301;51.956;5.876;2023-04-15T04:08:41;5.70;;;4.07;;
73113;SDS011;61301;51.956;5.876;2023-04-15T04:11:07;6.47;;;4.45;;
73113;SDS011;61301;51.956;5.876;2023-04-15T04:13:33;6.72;;;4.60;;
73113;SDS011;61301;51.956;5.876;2023-04-15T04:15:59;6.35;;;3.97;;
73113;SDS011;61301;51.956;5.876;2023-04-15T04:18:25;5.43;;;4.05;;
73113;SDS011;61301;51.956;5.876;2023-04-15T04:20:51;5.35;;;3.80;;
73113;SDS011;61301;51.956;5.876;2023-04-15T04:23:17;6.50;;;4.78;;
73113;SDS011;61301;51.956;5.876;2023-04-15T04:25:43;5.53;;;4.25;;
73113;SDS011;61301;51.956;5.876;2023-04-15T04:28:09;7.10;;;4.15;;
73113;SDS011;61301;51.956;5.876;2023-04-15T04:30:42;4.85;;;4.28;;
73113;SDS011;61301;51.956;5.876;2023-04-15T04:33:08;5.95;;;4.38;;
73113;SDS011;61301;51.956;5.876;2023-04-15T04:35:34;6.47;;;5.15;;
73113;SDS011;61301;51.956;5.876;2023-04-15T04:38:02;7.20;;;4.72;;
73113;SDS011;61301;51.956;5.876;2023-04-15T04:40:29;7.40;;;4.78;;
73113;SDS011;61301;51.956;5.876;2023-04-15T04:42:55;6.10;;;5.35;;
73113;SDS011;61301;51.956;5.876;2023-04-15T04:45:21;6.13;;;5.45;;
73113;SDS011;61301;51.956;5.876;2023-04-15T04:47:47;7.20;;;4.45;;
73113;SDS011;61301;51.956;5.876;2023-04-15T04:50:13;7.00;;;4.40;;
73113;SDS011;61301;51.956;5.876;2023-04-15T04:52:39;9.07;;;5.47;;
73113;SDS011;61301;51.956;5.876;2023-04-15T04:55:05;9.15;;;6.22;;
73113;SDS011;61301;51.956;5.876;2023-04-15T04:57:33;7.47;;;5.68;;
73113;SDS011;61301;51.956;5.876;2023-04-15T05:00:04;10.13;;;5.93;;
73113;SDS011;61301;51.956;5.876;2023-04-15T05:02:33;8.93;;;6.20;;
73113;SDS011;61301;51.956;5.876;2023-04-15T05:04:59;8.18;;;5.32;;
73113;SDS011;61301;51.956;5.876;2023-04-15T05:07:26;6.00;;;4.63;;
73113;SDS011;61301;51.956;5.876;2023-04-15T05:09:52;8.93;;;6.18;;
73113;SDS011;61301;51.956;5.876;2023-04-15T05:12:18;6.57;;;5.53;;
73113;SDS011;61301;51.956;5.876;2023-04-15T05:14:44;6.28;;;4.95;;
73113;SDS011;61301;51.956;5.876;2023-04-15T05:17:11;7.35;;;6.28;;
73113;SDS011;61301;51.956;5.876;2023-04-15T05:19:37;5.18;;;4.55;;
73113;SDS011;61301;51.956;5.876;2023-04-15T05:22:03;6.15;;;4.72;;
73113;SDS011;61301;51.956;5.876;2023-04-15T05:24:29;8.75;;;5.70;;
73113;SDS011;61301;51.956;5.876;2023-04-15T05:26:55;7.43;;;5.97;;
73113;SDS011;61301;51.956;5.876;2023-04-15T05:29:21;6.80;;;5.57;;
73113;SDS011;61301;51.956;5.876;2023-04-15T05:31:47;6.40;;;4.50;;
73113;SDS011;61301;51.956;5.876;2023-04-15T05:34:13;7.28;;;5.65;;
73113;SDS011;61301;51.956;5.876;2023-04-15T05:36:41;7.32;;;5.10;;
73113;SDS011;61301;51.956;5.876;2023-04-15T05:39:07;7.15;;;5.97;;
73113;SDS011;61301;51.956;5.876;2023-04-15T05:41:33;7.32;;;6.60;;
73113;SDS011;61301;51.956;5.876;2023-04-15T05:43:59;7.55;;;5.85;;
73113;SDS011;61301;51.956;5.876;2023-04-15T05:46:25;8.30;;;6.00;;
73113;SDS011;61301;51.956;5.876;2023-04-15T05:48:52;8.32;;;6.50;;
73113;SDS011;61301;51.956;5.876;2023-04-15T05:51:18;6.18;;;5.57;;
73113;SDS011;61301;51.956;5.876;2023-04-15T05:53:44;7.68;;;6.28;;
73113;SDS011;61301;51.956;5.876;2023-04-15T05:56:10;7.13;;;5.85;;
73113;SDS011;61301;51.956;5.876;2023-04-15T05:58:36;7.03;;;5.60;;
73113;SDS011;61301;51.956;5.876;2023-04-15T06:01:02;6.22;;;4.90;;
73113;SDS011;61301;51.956;5.876;2023-04-15T06:03:28;10.63;;;6.82;;
73113;SDS011;61301;51.956;5.876;2023-04-15T06:05:55;6.75;;;5.15;;
73113;SDS011;61301;51.956;5.876;2023-04-15T06:08:21;8.80;;;6.57;;
73113;SDS011;61301;51.956;5.876;2023-04-15T06:10:47;5.68;;;5.10;;
73113;SDS011;61301;51.956;5.876;2023-04-15T06:13:13;7.95;;;6.65;;
73113;SDS011;61301;51.956;5.876;2023-04-15T06:15:39;10.23;;;7.63;;
73113;SDS011;61301;51.956;5.876;2023-04-15T06:18:05;5.40;;;4.18;;
73113;SDS011;61301;51.956;5.876;2023-04-15T06:20:31;4.78;;;3.97;;
73113;SDS011;61301;51.956;5.876;2023-04-15T06:22:57;7.63;;;5.63;;
73113;SDS011;61301;51.956;5.876;2023-04-15T06:25:23;8.88;;;7.60;;
73113;SDS011;61301;51.956;5.876;2023-04-15T06:27:49;8.23;;;7.03;;
73113;SDS011;61301;51.956;5.876;2023-04-15T06:30:15;7.15;;;6.13;;
73113;SDS011;61301;51.956;5.876;2023-04-15T06:32:41;6.90;;;5.32;;
73113;SDS011;61301;51.956;5.876;2023-04-15T06:35:07;6.20;;;4.75;;
73113;SDS011;61301;51.956;5.876;2023-04-15T06:37:34;7.35;;;5.80;;
73113;SDS011;61301;51.956;5.876;2023-04-15T06:40:00;8.43;;;6.05;;
73113;SDS011;61301;51.956;5.876;2023-04-15T06:42:26;7.43;;;4.85;;
73113;SDS011;61301;51.956;5.876;2023-04-15T06:44:52;10.63;;;7.03;;
73113;SDS011;61301;51.956;5.876;2023-04-15T06:47:18;5.35;;;4.68;;
73113;SDS011;61301;51.956;5.876;2023-04-15T06:49:44;6.78;;;5.38;;
73113;SDS011;61301;51.956;5.876;2023-04-15T06:52:10;6.55;;;4.57;;
73113;SDS011;61301;51.956;5.876;2023-04-15T06:54:37;4.78;;;3.58;;
73113;SDS011;61301;51.956;5.876;2023-04-15T06:57:03;4.70;;;4.05;;
73113;SDS011;61301;51.956;5.876;2023-04-15T06:59:29;5.30;;;3.95;;
73113;SDS011;61301;51.956;5.876;2023-04-15T07:01:55;7.20;;;5.60;;
73113;SDS011;61301;51.956;5.876;2023-04-15T07:04:21;9.65;;;6.50;;
73113;SDS011;61301;51.956;5.876;2023-04-15T07:06:47;5.90;;;4.15;;
73113;SDS011;61301;51.956;5.876;2023-04-15T07:09:13;6.72;;;5.53;;
73113;SDS011;61301;51.956;5.876;2023-04-15T07:11:39;7.95;;;5.95;;
73113;SDS011;61301;51.956;5.876;2023-04-15T07:14:05;6.45;;;5.00;;
73113;SDS011;61301;51.956;5.876;2023-04-15T07:16:31;6.88;;;5.03;;
73113;SDS011;61301;51.956;5.876;2023-04-15T07:18:57;5.00;;;4.32;;
73113;SDS011;61301;51.956;5.876;2023-04-15T07:21:24;7.72;;;5.38;;
73113;SDS011;61301;51.956;5.876;2023-04-15T07:23:50;7.65;;;5.38;;
73113;SDS011;61301;51.956;5.876;2023-04-15T07:26:16;6.88;;;4.45;;
73113;SDS011;61301;51.956;5.876;2023-04-15T07:28:42;7.45;;;5.43;;
73113;SDS011;61301;51.956;5.876;2023-04-15T07:31:08;5.78;;;5.18;;
73113;SDS011;61301;51.956;5.876;2023-04-15T07:33:34;6.70;;;4.82;;
73113;SDS011;61301;51.956;5.876;2023-04-15T07:36:01;7.95;;;5.20;;
73113;SDS011;61301;51.956;5.876;2023-04-15T07:38:27;8.05;;;5.20;;
73113;SDS011;61301;51.956;5.876;2023-04-15T07:40:54;6.28;;;5.43;;
73113;SDS011;61301;51.956;5.876;2023-04-15T07:43:21;6.07;;;4.65;;
73113;SDS011;61301;51.956;5.876;2023-04-15T07:45:47;6.72;;;5.25;;
73113;SDS011;61301;51.956;5.876;2023-04-15T07:48:13;6.38;;;4.85;;
73113;SDS011;61301;51.956;5.876;2023-04-15T07:50:39;8.75;;;5.45;;
73113;SDS011;61301;51.956;5.876;2023-04-15T07:53:05;7.13;;;6.18;;
73113;SDS011;61301;51.956;5.876;2023-04-15T07:55:32;8.55;;;6.72;;
73113;SDS011;61301;51.956;5.876;2023-04-15T07:57:58;9.63;;;6.43;;
73113;SDS011;61301;51.956;5.876;2023-04-15T08:00:24;7.93;;;5.72;;
73113;SDS011;61301;51.956;5.876;2023-04-15T08:02:51;10.05;;;6.20;;
73113;SDS011;61301;51.956;5.876;2023-04-15T08:05:18;7.20;;;5.68;;
73113;SDS011;61301;51.956;5.876;2023-04-15T08:07:44;8.63;;;6.15;;
73113;SDS011;61301;51.956;5.876;2023-04-15T08:10:11;6.35;;;5.07;;
73113;SDS011;61301;51.956;5.876;2023-04-15T08:12:37;6.35;;;5.00;;
73113;SDS011;61301;51.956;5.876;2023-04-15T08:15:03;6.70;;;4.60;;
73113;SDS011;61301;51.956;5.876;2023-04-15T08:17:29;7.55;;;6.05;;
73113;SDS011;61301;51.956;5.876;2023-04-15T08:19:55;6.13;;;4.65;;
73113;SDS011;61301;51.956;5.876;2023-04-15T08:22:21;6.68;;;4.18;;
73113;SDS011;61301;51.956;5.876;2023-04-15T08:24:48;3.97;;;3.50;;
73113;SDS011;61301;51.956;5.876;2023-04-15T08:27:14;6.50;;;5.40;;
73113;SDS011;61301;51.956;5.876;2023-04-15T08:29:40;5.95;;;4.57;;
73113;SDS011;61301;51.956;5.876;2023-04-15T08:32:06;4.38;;;3.97;;
73113;SDS011;61301;51.956;5.876;2023-04-15T08:34:32;4.72;;;3.00;;
73113;SDS011;61301;51.956;5.876;2023-04-15T08:36:59;5.13;;;3.42;;
73113;SDS011;61301;51.956;5.876;2023-04-15T08:39:25;4.55;;;3.03;;
73113;SDS011;61301;51.956;5.876;2023-04-15T08:42:01;4.13;;;2.97;;
73113;SDS011;61301;51.956;5.876;2023-04-15T08:44:28;3.70;;;3.00;;
73113;SDS011;61301;51.956;5.876;2023-04-15T08:46:58;2.95;;;2.63;;
73113;SDS011;61301;51.956;5.876;2023-04-15T08:49:26;4.43;;;3.08;;
73113;SDS011;61301;51.956;5.876;2023-04-15T08:51:53;3.53;;;1.85;;
73113;SDS011;61301;51.956;5.876;2023-04-15T08:54:21;4.20;;;3.38;;
73113;SDS011;61301;51.956;5.876;2023-04-15T08:56:47;4.32;;;3.15;;
73113;SDS011;61301;51.956;5.876;2023-04-15T08:59:13;3.72;;;2.63;;
73113;SDS011;61301;51.956;5.876;2023-04-15T09:01:41;3.90;;;2.53;;
73113;SDS011;61301;51.956;5.876;2023-04-15T09:04:07;4.03;;;2.67;;
73113;SDS011;61301;51.956;5.876;2023-04-15T09:06:33;3.60;;;2.70;;
73113;SDS011;61301;51.956;5.876;2023-04-15T09:08:59;4.05;;;3.15;;
73113;SDS011;61301;51.956;5.876;2023-04-15T09:11:25;2.92;;;2.58;;
73113;SDS011;61301;51.956;5.876;2023-04-15T09:13:51;2.03;;;1.83;;
73113;SDS011;61301;51.956;5.876;2023-04-15T09:16:17;4.65;;;2.92;;
73113;SDS011;61301;51.956;5.876;2023-04-15T09:18:46;3.53;;;2.78;;
73113;SDS011;61301;51.956;5.876;2023-04-15T09:21:16;6.50;;;3.47;;
73113;SDS011;61301;51.956;5.876;2023-04-15T09:23:58;4.43;;;2.10;;
73113;SDS011;61301;51.956;5.876;2023-04-15T09:26:35;3.38;;;2.67;;
73113;SDS011;61301;51.956;5.876;2023-04-15T09:29:05;3.35;;;2.40;;
73113;SDS011;61301;51.956;5.876;2023-04-15T09:31:35;4.45;;;2.72;;
73113;SDS011;61301;51.956;5.876;2023-04-15T09:34:02;5.00;;;3.22;;
73113;SDS011;61301;51.956;5.876;2023-04-15T09:36:50;5.30;;;3.70;;
73113;SDS011;61301;51.956;5.876;2023-04-15T09:39:18;3.88;;;2.80;;
73113;SDS011;61301;51.956;5.876;2023-04-15T09:41:44;5.03;;;2.60;;
73113;SDS011;61301;51.956;5.876;2023-04-15T09:44:25;3.97;;;2.83;;
73113;SDS011;61301;51.956;5.876;2023-04-15T09:46:51;4.47;;;3.08;;
73113;SDS011;61301;51.956;5.876;2023-04-15T09:49:18;3.22;;;2.67;;
73113;SDS011;61301;51.956;5.876;2023-04-15T09:51:45;3.78;;;3.05;;
73113;SDS011;61301;51.956;5.876;2023-04-15T09:54:11;4.82;;;3.38;;
73113;SDS011;61301;51.956;5.876;2023-04-15T09:56:38;3.97;;;2.65;;
73113;SDS011;61301;51.956;5.876;2023-04-15T09:59:07;3.83;;;2.80;;
73113;SDS011;61301;51.956;5.876;2023-04-15T10:01:34;3.60;;;2.45;;
73113;SDS011;61301;51.956;5.876;2023-04-15T10:04:04;3.38;;;2.55;;
73113;SDS011;61301;51.956;5.876;2023-04-15T10:06:30;3.42;;;2.63;;
73113;SDS011;61301;51.956;5.876;2023-04-15T10:08:57;3.92;;;2.00;;
73113;SDS011;61301;51.956;5.876;2023-04-15T10:11:25;2.75;;;2.20;;
73113;SDS011;61301;51.956;5.876;2023-04-15T10:13:53;4.15;;;2.88;;
73113;SDS011;61301;51.956;5.876;2023-04-15T10:16:21;3.20;;;2.80;;
73113;SDS011;61301;51.956;5.876;2023-04-15T10:18:55;3.25;;;2.28;;
73113;SDS011;61301;51.956;5.876;2023-04-15T10:21:21;2.50;;;2.20;;
73113;SDS011;61301;51.956;5.876;2023-04-15T10:23:48;4.65;;;2.30;;
73113;SDS011;61301;51.956;5.876;2023-04-15T10:26:15;2.30;;;2.10;;
73113;SDS011;61301;51.956;5.876;2023-04-15T10:28:42;3.10;;;2.17;;
73113;SDS011;61301;51.956;5.876;2023-04-15T10:31:12;4.72;;;2.33;;
73113;SDS011;61301;51.956;5.876;2023-04-15T10:33:42;3.25;;;2.40;;
73113;SDS011;61301;51.956;5.876;2023-04-15T10:36:09;3.38;;;2.30;;
73113;SDS011;61301;51.956;5.876;2023-04-15T10:38:39;2.15;;;1.90;;
73113;SDS011;61301;51.956;5.876;2023-04-15T10:41:14;2.97;;;1.65;;
73113;SDS011;61301;51.956;5.876;2023-04-15T10:43:53;2.03;;;1.65;;
73113;SDS011;61301;51.956;5.876;2023-04-15T10:48:58;2.38;;;1.90;;
73113;SDS011;61301;51.956;5.876;2023-04-15T10:51:39;3.63;;;2.58;;
73113;SDS011;61301;51.956;5.876;2023-04-15T10:54:39;3.28;;;2.20;;
73113;SDS011;61301;51.956;5.876;2023-04-15T10:59:30;2.15;;;1.92;;
73113;SDS011;61301;51.956;5.876;2023-04-15T11:02:00;2.85;;;1.75;;
73113;SDS011;61301;51.956;5.876;2023-04-15T11:10:08;2.10;;;1.80;;
73113;SDS011;61301;51.956;5.876;2023-04-15T11:12:56;1.83;;;1.45;;
73113;SDS011;61301;51.956;5.876;2023-04-15T11:18:07;2.28;;;1.80;;
73113;SDS011;61301;51.956;5.876;2023-04-15T11:20:36;3.50;;;1.80;;
73113;SDS011;61301;51.956;5.876;2023-04-15T11:23:04;3.08;;;1.73;;
73113;SDS011;61301;51.956;5.876;2023-04-15T11:25:31;2.33;;;1.40;;
73113;SDS011;61301;51.956;5.876;2023-04-15T11:27:59;4.85;;;1.52;;
73113;SDS011;61301;51.956;5.876;2023-04-15T11:30:30;2.20;;;1.50;;
73113;SDS011;61301;51.956;5.876;2023-04-15T11:32:59;2.65;;;1.60;;
73113;SDS011;61301;51.956;5.876;2023-04-15T11:35:27;2.95;;;1.60;;
73113;SDS011;61301;51.956;5.876;2023-04-15T11:37:54;2.53;;;1.30;;
73113;SDS011;61301;51.956;5.876;2023-04-15T11:40:24;4.80;;;1.63;;
73113;SDS011;61301;51.956;5.876;2023-04-15T11:43:03;1.52;;;1.10;;
73113;SDS011;61301;51.956;5.876;2023-04-15T11:45:37;3.03;;;1.43;;
73113;SDS011;61301;51.956;5.876;2023-04-15T11:48:13;1.63;;;1.17;;
73113;SDS011;61301;51.956;5.876;2023-04-15T11:50:39;2.55;;;1.67;;
73113;SDS011;61301;51.956;5.876;2023-04-15T11:53:06;3.08;;;1.30;;
73113;SDS011;61301;51.956;5.876;2023-04-15T11:55:45;3.55;;;1.17;;
73113;SDS011;61301;51.956;5.876;2023-04-15T12:00:41;1.40;;;0.90;;
73113;SDS011;61301;51.956;5.876;2023-04-15T12:03:17;2.87;;;1.23;;
73113;SDS011;61301;51.956;5.876;2023-04-15T12:13:53;1.85;;;1.00;;
73113;SDS011;61301;51.956;5.876;2023-04-15T12:16:21;1.83;;;1.05;;
73113;SDS011;61301;51.956;5.876;2023-04-15T12:18:51;1.85;;;0.80;;
73113;SDS011;61301;51.956;5.876;2023-04-15T12:21:21;1.60;;;0.50;;
73113;SDS011;61301;51.956;5.876;2023-04-15T12:23:52;0.60;;;0.60;;
73113;SDS011;61301;51.956;5.876;2023-04-15T12:26:26;2.40;;;1.35;;
73113;SDS011;61301;51.956;5.876;2023-04-15T12:29:04;3.83;;;1.00;;
73113;SDS011;61301;51.956;5.876;2023-04-15T12:31:33;1.98;;;0.80;;
73113;SDS011;61301;51.956;5.876;2023-04-15T12:34:03;0.90;;;0.80;;
73113;SDS011;61301;51.956;5.876;2023-04-15T12:36:33;2.08;;;0.77;;
73113;SDS011;61301;51.956;5.876;2023-04-15T12:39:03;1.35;;;0.60;;
73113;SDS011;61301;51.956;5.876;2023-04-15T12:41:30;0.95;;;0.80;;
73113;SDS011;61301;51.956;5.876;2023-04-15T12:43:56;1.50;;;1.30;;
73113;SDS011;61301;51.956;5.876;2023-04-15T12:46:22;3.42;;;1.17;;
73113;SDS011;61301;51.956;5.876;2023-04-15T12:48:49;1.83;;;1.00;;
73113;SDS011;61301;51.956;5.876;2023-04-15T12:51:19;2.47;;;1.08;;
73113;SDS011;61301;51.956;5.876;2023-04-15T12:53:51;2.13;;;1.20;;
73113;SDS011;61301;51.956;5.876;2023-04-15T12:56:17;2.58;;;1.50;;
73113;SDS011;61301;51.956;5.876;2023-04-15T12:58:43;4.07;;;1.77;;
73113;SDS011;61301;51.956;5.876;2023-04-15T13:01:09;3.92;;;1.30;;
73113;SDS011;61301;51.956;5.876;2023-04-15T13:03:35;2.00;;;0.95;;
73113;SDS011;61301;51.956;5.876;2023-04-15T13:06:01;1.63;;;1.10;;
73113;SDS011;61301;51.956;5.876;2023-04-15T13:08:29;1.38;;;0.95;;
73113;SDS011;61301;51.956;5.876;2023-04-15T13:10:56;2.08;;;1.20;;
73113;SDS011;61301;51.956;5.876;2023-04-15T13:13:22;1.23;;;0.70;;
73113;SDS011;61301;51.956;5.876;2023-04-15T13:15:48;1.27;;;0.63;;
73113;SDS011;61301;51.956;5.876;2023-04-15T13:18:14;2.35;;;1.00;;
73113;SDS011;61301;51.956;5.876;2023-04-15T13:20:40;2.42;;;0.70;;
73113;SDS011;61301;51.956;5.876;2023-04-15T13:23:06;0.88;;;0.50;;
73113;SDS011;61301;51.956;5.876;2023-04-15T13:25:32;1.60;;;0.63;;
73113;SDS011;61301;51.956;5.876;2023-04-15T13:27:58;1.20;;;0.60;;
73113;SDS011;61301;51.956;5.876;2023-04-15T13:30:26;1.52;;;0.50;;
73113;SDS011;61301;51.956;5.876;2023-04-15T13:32:52;1.70;;;0.80;;
73113;SDS011;61301;51.956;5.876;2023-04-15T13:35:19;1.52;;;0.60;;
73113;SDS011;61301;51.956;5.876;2023-04-15T13:37:46;1.75;;;0.73;;
73113;SDS011;61301;51.956;5.876;2023-04-15T13:40:12;1.98;;;1.00;;
73113;SDS011;61301;51.956;5.876;2023-04-15T13:42:38;0.93;;;0.50;;
73113;SDS011;61301;51.956;5.876;2023-04-15T13:45:04;1.70;;;0.50;;
73113;SDS011;61301;51.956;5.876;2023-04-15T13:47:30;1.10;;;0.68;;
73113;SDS011;61301;51.956;5.876;2023-04-15T13:49:56;0.82;;;0.43;;
73113;SDS011;61301;51.956;5.876;2023-04-15T13:52:22;2.67;;;0.60;;
73113;SDS011;61301;51.956;5.876;2023-04-15T13:54:48;1.45;;;0.73;;
73113;SDS011;61301;51.956;5.876;2023-04-15T13:57:15;0.88;;;0.60;;
73113;SDS011;61301;51.956;5.876;2023-04-15T13:59:41;2.45;;;0.40;;
73113;SDS011;61301;51.956;5.876;2023-04-15T14:02:08;2.15;;;0.60;;
73113;SDS011;61301;51.956;5.876;2023-04-15T14:04:35;1.33;;;0.70;;
73113;SDS011;61301;51.956;5.876;2023-04-15T14:07:01;0.65;;;0.52;;
73113;SDS011;61301;51.956;5.876;2023-04-15T14:09:28;2.20;;;0.60;;
73113;SDS011;61301;51.956;5.876;2023-04-15T14:11:54;1.83;;;0.70;;
73113;SDS011;61301;51.956;5.876;2023-04-15T14:14:21;1.05;;;0.40;;
73113;SDS011;61301;51.956;5.876;2023-04-15T14:16:47;1.10;;;0.60;;
73113;SDS011;61301;51.956;5.876;2023-04-15T14:19:13;1.98;;;0.82;;
73113;SDS011;61301;51.956;5.876;2023-04-15T14:21:39;1.42;;;0.50;;
73113;SDS011;61301;51.956;5.876;2023-04-15T14:24:05;1.55;;;0.75;;
73113;SDS011;61301;51.956;5.876;2023-04-15T14:26:31;1.30;;;0.82;;
73113;SDS011;61301;51.956;5.876;2023-04-15T14:28:57;2.35;;;0.80;;
73113;SDS011;61301;51.956;5.876;2023-04-15T14:31:23;0.52;;;0.47;;
73113;SDS011;61301;51.956;5.876;2023-04-15T14:33:49;1.83;;;0.50;;
73113;SDS011;61301;51.956;5.876;2023-04-15T14:36:15;0.70;;;0.60;;
73113;SDS011;61301;51.956;5.876;2023-04-15T14:38:42;1.77;;;0.60;;
73113;SDS011;61301;51.956;5.876;2023-04-15T14:41:08;0.70;;;0.47;;
73113;SDS011;61301;51.956;5.876;2023-04-15T14:43:34;1.42;;;0.82;;
73113;SDS011;61301;51.956;5.876;2023-04-15T14:46:00;0.88;;;0.52;;
73113;SDS011;61301;51.956;5.876;2023-04-15T14:48:27;2.05;;;0.55;;
73113;SDS011;61301;51.956;5.876;2023-04-15T14:50:53;2.65;;;0.65;;
73113;SDS011;61301;51.956;5.876;2023-04-15T14:53:19;0.95;;;0.57;;
73113;SDS011;61301;51.956;5.876;2023-04-15T14:55:45;1.30;;;0.60;;
73113;SDS011;61301;51.956;5.876;2023-04-15T14:58:11;1.52;;;0.70;;
73113;SDS011;61301;51.956;5.876;2023-04-15T15:00:37;2.58;;;1.13;;
73113;SDS011;61301;51.956;5.876;2023-04-15T15:03:09;2.47;;;0.93;;
73113;SDS011;61301;51.956;5.876;2023-04-15T15:05:39;3.87;;;1.30;;
73113;SDS011;61301;51.956;5.876;2023-04-15T15:08:06;2.92;;;0.90;;
73113;SDS011;61301;51.956;5.876;2023-04-15T15:10:34;1.60;;;1.05;;
73113;SDS011;61301;51.956;5.876;2023-04-15T15:13:04;0.52;;;0.40;;